createdAt,value
2018-02-04T00:02:04.006Z,91.20
2018-02-04T00:04:31.564Z,91.20
2018-02-04T00:06:59.106Z,91.20
2018-02-04T00:09:26.660Z,91.10
2018-02-04T00:11:54.252Z,91.10
2018-02-04T00:14:21.865Z,91.10
2018-02-04T00:16:49.469Z,91.00
2018-02-04T00:19:17.021Z,90.80
2018-02-04T00:21:44.581Z,90.90
2018-02-04T00:24:12.137Z,90.90
2018-02-04T00:26:39.748Z,91.10
2018-02-04T00:29:08.210Z,90.80
2018-02-04T00:31:36.605Z,91.00
2018-02-04T00:34:04.935Z,90.70
2018-02-04T00:36:32.513Z,90.70
2018-02-04T00:39:00.249Z,90.80
2018-02-04T00:41:27.785Z,90.80
2018-02-04T00:43:55.358Z,90.80
2018-02-04T00:46:22.913Z,90.50
2018-02-04T00:48:50.507Z,90.60
2018-02-04T00:51:18.065Z,90.70
2018-02-04T00:53:45.669Z,90.80
2018-02-04T00:56:14.028Z,90.40
2018-02-04T00:58:41.588Z,90.40
2018-02-04T01:01:09.142Z,90.50
2018-02-04T01:03:36.724Z,90.60
2018-02-04T01:06:04.272Z,90.50
2018-02-04T01:08:31.832Z,90.50
2018-02-04T01:10:59.395Z,90.60
2018-02-04T01:13:26.989Z,90.30
2018-02-04T01:15:55.361Z,90.00
2018-02-04T01:18:23.693Z,89.30
2018-02-04T01:20:51.284Z,89.30
2018-02-04T01:23:18.847Z,89.00
2018-02-04T01:25:46.421Z,89.00
2018-02-04T01:28:14.761Z,88.80
2018-02-04T01:30:42.308Z,88.80
2018-02-04T01:33:09.865Z,89.20
2018-02-04T01:35:37.585Z,89.80
2018-02-04T01:38:05.140Z,88.80
2018-02-04T01:40:32.697Z,89.20
2018-02-04T01:43:00.296Z,88.40
2018-02-04T01:45:28.023Z,87.20
2018-02-04T01:48:07.425Z,86.00
2018-02-04T01:50:35.001Z,85.30
2018-02-04T01:53:02.592Z,85.20
2018-02-04T01:55:30.933Z,85.60
2018-02-04T01:57:58.497Z,85.40
2018-02-04T02:00:26.081Z,85.60
2018-02-04T02:02:53.649Z,84.80
2018-02-04T02:05:21.214Z,84.70
2018-02-04T02:07:48.761Z,84.80
2018-02-04T02:10:17.093Z,84.30
2018-02-04T02:12:44.704Z,83.70
2018-02-04T02:15:12.266Z,84.00
2018-02-04T02:17:39.850Z,84.20
2018-02-04T02:20:08.181Z,84.60
2018-02-04T02:22:35.904Z,84.40
2018-02-04T02:25:04.233Z,84.90
2018-02-04T02:27:31.821Z,84.80
2018-02-04T02:29:59.395Z,84.80
2018-02-04T02:32:27.066Z,84.80
2018-02-04T02:34:55.386Z,84.50
2018-02-04T02:37:23.034Z,84.40
2018-02-04T02:39:51.357Z,84.70
2018-02-04T02:42:19.016Z,84.50
2018-02-04T02:44:47.437Z,85.10
2018-02-04T02:47:15.005Z,85.60
2018-02-04T02:49:42.586Z,85.80
2018-02-04T02:52:10.169Z,85.00
2018-02-04T02:54:37.844Z,84.20
2018-02-04T02:57:05.441Z,84.40
2018-02-04T02:59:33.772Z,83.80
2018-02-04T03:02:01.338Z,83.80
2018-02-04T03:04:29.068Z,82.90
2018-02-04T03:06:56.649Z,83.30
2018-02-04T03:09:24.237Z,83.00
2018-02-04T03:11:51.784Z,83.20
2018-02-04T03:14:19.338Z,83.80
2018-02-04T03:16:46.900Z,83.60
2018-02-04T03:19:14.520Z,83.90
2018-02-04T03:21:42.148Z,83.30
2018-02-04T03:24:09.713Z,83.00
2018-02-04T03:26:37.255Z,82.90
2018-02-04T03:29:04.833Z,82.60
2018-02-04T03:31:32.379Z,83.10
2018-02-04T03:33:59.965Z,83.20
2018-02-04T03:36:28.387Z,82.90
2018-02-04T03:38:55.928Z,82.90
2018-02-04T03:41:23.483Z,82.70
2018-02-04T03:43:51.819Z,82.50
2018-02-04T03:46:19.369Z,82.50
2018-02-04T03:48:46.929Z,82.50
2018-02-04T03:51:14.496Z,82.20
2018-02-04T03:53:42.055Z,82.20
2018-02-04T03:56:09.792Z,81.90
2018-02-04T03:58:37.337Z,82.50
2018-02-04T04:01:05.014Z,81.90
2018-02-04T04:03:32.560Z,81.90
2018-02-04T04:06:00.116Z,81.50
2018-02-04T04:08:28.478Z,80.40
2018-02-04T04:10:56.026Z,80.40
2018-02-04T04:13:23.573Z,80.10
2018-02-04T04:15:51.149Z,80.30
2018-02-04T04:18:18.742Z,80.40
2018-02-04T04:20:47.062Z,80.10
2018-02-04T04:23:14.607Z,80.20
2018-02-04T04:25:42.177Z,80.30
2018-02-04T04:28:09.742Z,78.20
2018-02-04T04:30:37.295Z,77.80
2018-02-04T04:33:04.904Z,78.20
2018-02-04T04:35:32.453Z,77.30
2018-02-04T04:38:00.172Z,77.70
2018-02-04T04:40:27.730Z,77.80
2018-02-04T04:42:55.304Z,76.90
2018-02-04T04:45:22.889Z,76.10
2018-02-04T04:47:50.472Z,75.30
2018-02-04T04:50:18.807Z,76.40
2018-02-04T04:52:46.367Z,76.30
2018-02-04T04:55:13.933Z,74.70
2018-02-04T04:57:41.497Z,74.50
2018-02-04T05:00:09.053Z,73.60
2018-02-04T05:02:36.617Z,74.00
2018-02-04T05:05:04.173Z,74.00
2018-02-04T05:07:31.708Z,73.50
2018-02-04T05:09:59.258Z,72.90
2018-02-04T05:12:26.805Z,72.60
2018-02-04T05:14:55.145Z,73.90
2018-02-04T05:17:22.697Z,73.90
2018-02-04T05:19:50.269Z,72.70
2018-02-04T05:22:17.801Z,72.50
2018-02-04T05:24:45.386Z,71.60
2018-02-04T05:27:12.933Z,72.00
2018-02-04T05:29:40.501Z,73.40
2018-02-04T05:32:08.064Z,71.70
2018-02-04T05:34:35.614Z,70.80
2018-02-04T05:37:03.180Z,69.20
2018-02-04T05:39:30.734Z,68.60
2018-02-04T05:41:59.233Z,70.40
2018-02-04T05:44:26.865Z,69.20
2018-02-04T05:46:54.408Z,69.70
2018-02-04T05:49:21.949Z,67.90
2018-02-04T05:51:50.265Z,68.60
2018-02-04T05:54:17.838Z,69.30
2018-02-04T05:56:45.384Z,68.80
2018-02-04T05:59:12.956Z,68.50
2018-02-04T06:01:40.505Z,68.60
2018-02-04T06:04:08.285Z,69.50
2018-02-04T06:06:35.832Z,69.10
2018-02-04T06:09:03.395Z,68.70
2018-02-04T06:11:30.933Z,68.60
2018-02-04T06:13:58.545Z,68.20
2018-02-04T06:16:26.079Z,68.80
2018-02-04T06:18:53.613Z,68.70
2018-02-04T06:21:21.171Z,68.50
2018-02-04T06:23:49.470Z,64.10
2018-02-04T06:26:17.056Z,64.00
2018-02-04T06:28:44.629Z,64.70
2018-02-04T06:31:12.194Z,64.80
2018-02-04T06:33:39.745Z,66.00
2018-02-04T06:36:07.314Z,66.10
2018-02-04T06:38:35.624Z,64.90
2018-02-04T06:41:03.958Z,64.50
2018-02-04T06:43:31.594Z,64.50
2018-02-04T06:45:59.133Z,64.30
2018-02-04T06:48:26.905Z,64.10
2018-02-04T06:50:54.479Z,64.30
2018-02-04T06:53:22.004Z,65.10
2018-02-04T06:55:50.318Z,65.00
2018-02-04T06:58:18.083Z,65.00
2018-02-04T07:00:45.614Z,65.10
2018-02-04T07:03:13.909Z,64.10
2018-02-04T07:05:41.479Z,64.10
2018-02-04T07:08:09.033Z,64.40
2018-02-04T07:10:36.601Z,65.50
2018-02-04T07:13:04.190Z,63.70
2018-02-04T07:15:31.789Z,63.40
2018-02-04T07:18:00.111Z,64.00
2018-02-04T07:20:27.682Z,64.10
2018-02-04T07:22:55.253Z,63.20
2018-02-04T07:25:22.862Z,62.20
2018-02-04T07:27:51.250Z,64.00
2018-02-04T07:30:19.613Z,63.10
2018-02-04T07:32:47.928Z,61.50
2018-02-04T07:35:15.469Z,61.40
2018-02-04T07:37:43.010Z,61.90
2018-02-04T07:40:11.362Z,61.60
2018-02-04T07:42:38.897Z,61.50
2018-02-04T07:45:06.436Z,61.40
2018-02-04T07:47:33.981Z,62.40
2018-02-04T07:50:02.304Z,62.30
2018-02-04T07:52:29.844Z,62.30
2018-02-04T07:54:57.406Z,62.90
2018-02-04T07:57:24.964Z,61.20
2018-02-04T07:59:52.523Z,61.30
2018-02-04T08:02:20.097Z,61.80
2018-02-04T08:04:47.630Z,61.20
2018-02-04T08:07:15.206Z,62.30
2018-02-04T08:09:42.751Z,63.00
2018-02-04T08:12:10.289Z,62.50
2018-02-04T08:14:38.789Z,62.20
2018-02-04T08:17:06.350Z,61.70
2018-02-04T08:19:34.668Z,63.20
2018-02-04T08:22:02.382Z,63.20
2018-02-04T08:24:30.821Z,62.40
2018-02-04T08:26:58.397Z,62.30
2018-02-04T08:29:25.970Z,62.20
2018-02-04T08:31:53.516Z,61.80
2018-02-04T08:34:21.208Z,61.10
2018-02-04T08:36:48.783Z,62.40
2018-02-04T08:39:17.111Z,61.80
2018-02-04T08:41:44.765Z,61.70
2018-02-04T08:44:12.337Z,62.20
2018-02-04T08:46:39.857Z,59.90
2018-02-04T08:49:07.401Z,60.80
2018-02-04T08:51:35.729Z,59.20
2018-02-04T08:54:03.487Z,59.20
2018-02-04T08:56:31.048Z,58.00
2018-02-04T08:58:58.609Z,58.70
2018-02-04T09:01:26.193Z,59.70
2018-02-04T09:03:53.766Z,58.80
2018-02-04T09:06:21.349Z,58.80
2018-02-04T09:08:49.767Z,57.90
2018-02-04T09:11:17.314Z,57.90
2018-02-04T09:13:44.982Z,58.20
2018-02-04T09:16:12.549Z,56.50
2018-02-04T09:18:40.115Z,56.90
2018-02-04T09:21:07.709Z,58.40
2018-02-04T09:23:35.428Z,58.00
2018-02-04T09:26:03.754Z,58.20
2018-02-04T09:28:31.418Z,58.20
2018-02-04T09:30:58.992Z,57.50
2018-02-04T09:33:26.600Z,57.90
2018-02-04T09:35:54.401Z,58.10
2018-02-04T09:38:21.953Z,58.10
2018-02-04T09:40:49.541Z,57.00
2018-02-04T09:43:17.902Z,54.00
2018-02-04T09:45:45.457Z,53.40
2018-02-04T09:48:13.785Z,55.50
2018-02-04T09:50:41.364Z,55.50
2018-02-04T09:53:08.997Z,54.80
2018-02-04T09:55:37.346Z,54.10
2018-02-04T09:58:05.049Z,54.10
2018-02-04T10:00:32.705Z,54.50
2018-02-04T10:03:01.026Z,57.10
2018-02-04T10:05:28.698Z,56.90
2018-02-04T10:07:56.273Z,58.40
2018-02-04T10:10:23.949Z,58.10
2018-02-04T10:12:52.485Z,58.20
2018-02-04T10:15:20.058Z,58.20
2018-02-04T10:17:47.610Z,59.90
2018-02-04T10:20:15.969Z,59.00
2018-02-04T10:22:45.612Z,59.00
2018-02-04T10:25:13.934Z,60.80
2018-02-04T10:27:41.487Z,60.70
2018-02-04T10:30:09.122Z,60.90
2018-02-04T10:32:36.737Z,62.20
2018-02-04T10:35:04.280Z,60.40
2018-02-04T10:37:31.889Z,61.60
2018-02-04T10:39:59.458Z,61.90
2018-02-04T10:42:27.791Z,59.80
2018-02-04T10:44:55.391Z,60.10
2018-02-04T10:47:22.932Z,60.40
2018-02-04T10:49:50.508Z,59.40
2018-02-04T10:52:18.061Z,60.70
2018-02-04T10:54:45.621Z,59.60
2018-02-04T10:57:13.224Z,60.40
2018-02-04T10:59:41.584Z,62.10
2018-02-04T11:02:09.908Z,61.50
2018-02-04T11:04:37.446Z,61.50
2018-02-04T11:07:04.990Z,60.80
2018-02-04T11:09:33.309Z,57.50
2018-02-04T11:12:00.865Z,57.40
2018-02-04T11:14:28.651Z,57.00
2018-02-04T11:16:56.251Z,55.60
2018-02-04T11:19:24.604Z,55.80
2018-02-04T11:21:52.134Z,55.70
2018-02-04T11:24:19.899Z,57.30
2018-02-04T11:26:47.489Z,58.90
2018-02-04T11:29:15.056Z,57.30
2018-02-04T11:31:42.620Z,57.70
2018-02-04T11:34:10.210Z,57.50
2018-02-04T11:36:38.541Z,56.50
2018-02-04T11:39:06.108Z,56.60
2018-02-04T11:41:33.665Z,57.20
2018-02-04T11:44:01.271Z,56.50
2018-02-04T11:46:29.585Z,58.60
2018-02-04T11:48:57.920Z,58.00
2018-02-04T11:51:25.493Z,58.00
2018-02-04T11:53:53.998Z,57.20
2018-02-04T11:56:21.558Z,57.30
2018-02-04T11:58:49.139Z,59.00
2018-02-04T12:01:16.693Z,59.70
2018-02-04T12:03:44.253Z,59.40
2018-02-04T12:06:11.826Z,59.40
2018-02-04T12:08:39.384Z,60.60
2018-02-04T12:11:06.974Z,61.10
2018-02-04T12:13:34.672Z,61.50
2018-02-04T12:16:03.005Z,60.40
2018-02-04T12:18:30.580Z,60.40
2018-02-04T12:20:58.193Z,62.00
2018-02-04T12:26:18.979Z,61.00
2018-02-04T12:28:47.478Z,62.40
2018-02-04T12:37:01.018Z,63.00
2018-02-04T12:39:28.603Z,63.50
2018-02-04T12:41:56.186Z,63.70
2018-02-04T12:44:24.513Z,63.30
2018-02-04T12:46:52.232Z,63.40
2018-02-04T12:49:20.582Z,64.10
2018-02-04T12:51:48.154Z,64.10
2018-02-04T12:54:15.700Z,64.00
2018-02-04T12:56:43.282Z,62.60
2018-02-04T12:59:11.629Z,60.80
2018-02-04T13:01:39.181Z,60.80
2018-02-04T13:04:06.759Z,60.60
2018-02-04T13:06:34.623Z,61.00
2018-02-04T13:09:02.193Z,62.00
2018-02-04T13:11:29.749Z,63.30
2018-02-04T13:13:57.433Z,65.40
2018-02-04T13:16:25.035Z,65.00
2018-02-04T13:18:52.590Z,66.50
2018-02-04T13:21:21.147Z,65.50
2018-02-04T13:29:38.728Z,64.90
2018-02-04T13:32:06.289Z,63.70
2018-02-04T13:34:33.913Z,64.80
2018-02-04T13:37:02.261Z,62.90
2018-02-04T13:39:29.826Z,62.90
2018-02-04T13:41:58.136Z,56.50
2018-02-04T13:44:25.705Z,56.40
2018-02-04T13:46:53.482Z,56.60
2018-02-04T13:49:21.039Z,57.40
2018-02-04T13:51:48.605Z,58.30
2018-02-04T13:54:16.201Z,58.00
2018-02-04T13:56:43.796Z,59.20
2018-02-04T13:59:11.396Z,58.80
2018-02-04T14:01:38.948Z,58.60
2018-02-04T14:04:06.523Z,58.70
2018-02-04T14:06:34.085Z,55.70
2018-02-04T14:09:01.661Z,55.20
2018-02-04T14:11:29.291Z,54.10
2018-02-04T14:13:56.947Z,53.20
2018-02-04T14:16:25.262Z,53.30
2018-02-04T14:18:52.841Z,53.30
2018-02-04T14:21:20.399Z,54.00
2018-02-04T14:23:47.970Z,52.80
2018-02-04T14:26:15.554Z,52.40
2018-02-04T14:28:43.867Z,54.60
2018-02-04T14:31:11.460Z,54.50
2018-02-04T14:33:39.009Z,53.40
2018-02-04T14:36:06.547Z,53.80
2018-02-04T14:38:34.102Z,52.80
2018-02-04T14:41:01.665Z,53.80
2018-02-04T14:43:29.205Z,52.70
2018-02-04T14:45:57.636Z,53.00
2018-02-04T14:48:25.237Z,53.00
2018-02-04T14:50:53.602Z,53.60
2018-02-04T14:53:21.176Z,53.60
2018-02-04T14:55:48.710Z,52.10
2018-02-04T14:58:16.284Z,51.90
2018-02-04T15:00:43.837Z,51.20
2018-02-04T15:03:11.385Z,51.60
2018-02-04T15:05:38.946Z,52.80
2018-02-04T15:08:06.499Z,53.40
2018-02-04T15:10:34.057Z,54.30
2018-02-04T15:13:01.674Z,54.80
2018-02-04T15:15:30.007Z,56.80
2018-02-04T15:17:57.592Z,56.80
2018-02-04T15:20:25.215Z,56.90
2018-02-04T15:22:52.830Z,58.10
2018-02-04T15:25:20.427Z,58.70
2018-02-04T15:27:48.101Z,57.30
2018-02-04T15:30:15.707Z,58.50
2018-02-04T15:32:43.233Z,59.80
2018-02-04T15:35:10.789Z,59.40
2018-02-04T15:37:38.418Z,60.40
2018-02-04T15:40:06.755Z,60.00
2018-02-04T15:42:34.362Z,60.00
2018-02-04T15:45:02.715Z,62.10
2018-02-04T15:47:30.268Z,62.10
2018-02-04T15:49:57.802Z,62.30
2018-02-04T15:52:25.375Z,61.60
2018-02-04T15:54:52.923Z,63.10
2018-02-04T15:57:20.564Z,62.70
2018-02-04T15:59:48.145Z,63.00
2018-02-04T16:02:15.704Z,63.70
2018-02-04T16:04:43.393Z,64.20
2018-02-04T16:07:10.973Z,64.20
2018-02-04T16:09:38.563Z,64.20
2018-02-04T16:12:06.147Z,65.00
2018-02-04T16:14:33.729Z,65.30
2018-02-04T16:17:01.277Z,66.10
2018-02-04T16:19:28.829Z,66.00
2018-02-04T16:21:56.394Z,65.80
2018-02-04T16:24:23.976Z,66.50
2018-02-04T16:26:51.538Z,67.00
2018-02-04T16:29:19.918Z,68.40
2018-02-04T16:31:47.522Z,67.60
2018-02-04T16:34:15.100Z,67.60
2018-02-04T16:36:42.739Z,67.40
2018-02-04T16:39:12.107Z,67.70
2018-02-04T16:41:40.424Z,66.40
2018-02-04T16:44:08.032Z,66.40
2018-02-04T16:46:35.650Z,65.90
2018-02-04T16:49:03.248Z,66.50
2018-02-04T16:51:30.850Z,65.70
2018-02-04T16:53:59.190Z,66.90
2018-02-04T16:56:31.785Z,66.90
2018-02-04T16:59:00.100Z,66.10
2018-02-04T17:01:27.769Z,66.20
2018-02-04T17:03:55.363Z,66.60
2018-02-04T17:06:23.288Z,65.40
2018-02-04T17:08:51.638Z,65.60
2018-02-04T17:11:19.185Z,65.60
2018-02-04T17:13:47.024Z,65.80
2018-02-04T17:16:14.705Z,66.80
2018-02-04T17:18:43.113Z,66.20
2018-02-04T17:21:11.961Z,67.20
2018-02-04T17:23:39.564Z,67.40
2018-02-04T17:26:07.940Z,68.40
2018-02-04T17:28:36.389Z,67.70
2018-02-04T17:31:03.957Z,67.70
2018-02-04T17:33:31.719Z,67.20
2018-02-04T17:35:59.306Z,68.10
2018-02-04T17:38:27.032Z,67.50
2018-02-04T17:40:54.601Z,66.70
2018-02-04T17:43:22.178Z,66.40
2018-02-04T17:45:50.827Z,67.30
2018-02-04T17:48:18.625Z,67.50
2018-02-04T17:50:46.234Z,66.90
2018-02-04T17:53:13.857Z,66.60
2018-02-04T17:55:41.698Z,65.90
2018-02-04T17:58:09.331Z,65.50
2018-02-04T18:00:37.766Z,64.80
2018-02-04T18:03:05.481Z,64.80
2018-02-04T18:05:33.096Z,64.50
2018-02-04T18:08:00.878Z,63.30
2018-02-04T18:10:29.274Z,62.60
2018-02-04T18:12:57.761Z,62.60
2018-02-04T18:15:26.179Z,63.10
2018-02-04T18:17:53.829Z,63.10
2018-02-04T18:20:21.499Z,63.60
2018-02-04T18:22:50.056Z,62.90
2018-02-04T18:25:17.698Z,63.20
2018-02-04T18:27:45.290Z,63.10
2018-02-04T18:30:14.252Z,63.60
2018-02-04T18:32:42.606Z,64.00
2018-02-04T18:35:10.240Z,63.60
2018-02-04T18:37:37.829Z,64.80
2018-02-04T18:40:05.522Z,65.10
2018-02-04T18:42:33.231Z,64.70
2018-02-04T18:45:00.854Z,65.00
2018-02-04T18:47:28.540Z,65.70
2018-02-04T18:49:56.119Z,65.70
2018-02-04T18:52:23.724Z,65.90
2018-02-04T18:54:51.366Z,66.10
2018-02-04T18:57:18.944Z,67.00
2018-02-04T18:59:46.739Z,66.90
2018-02-04T19:02:14.327Z,67.50
2018-02-04T19:04:41.882Z,68.30
2018-02-04T19:07:09.449Z,68.70
2018-02-04T19:09:36.995Z,68.80
2018-02-04T19:12:04.541Z,70.00
2018-02-04T19:14:32.237Z,70.80
2018-02-04T19:16:59.855Z,71.10
2018-02-04T19:19:27.454Z,71.50
2018-02-04T19:21:55.030Z,72.20
2018-02-04T19:24:22.603Z,71.90
2018-02-04T19:26:50.187Z,72.50
2018-02-04T19:29:18.622Z,73.30
2018-02-04T19:31:46.278Z,72.90
2018-02-04T19:34:13.832Z,73.20
2018-02-04T19:36:41.439Z,73.00
2018-02-04T19:39:09.018Z,73.00
2018-02-04T19:41:36.675Z,73.00
2018-02-04T19:44:06.250Z,72.40
2018-02-04T19:46:33.979Z,72.70
2018-02-04T19:49:02.344Z,72.60
2018-02-04T19:51:30.746Z,73.10
2018-02-04T19:53:58.294Z,72.30
2018-02-04T19:56:25.876Z,72.70
2018-02-04T19:58:53.484Z,73.10
2018-02-04T20:01:21.042Z,73.70
2018-02-04T20:03:48.640Z,74.10
2018-02-04T20:06:17.012Z,74.60
2018-02-04T20:08:45.352Z,75.00
2018-02-04T20:11:13.229Z,74.90
2018-02-04T20:13:40.807Z,75.20
2018-02-04T20:16:09.228Z,76.00
2018-02-04T20:18:36.817Z,75.90
2018-02-04T20:21:04.595Z,75.60
2018-02-04T20:23:32.366Z,76.00
2018-02-04T20:26:00.986Z,76.10
2018-02-04T20:28:28.565Z,76.10
2018-02-04T20:30:58.041Z,76.40
2018-02-04T20:33:26.398Z,76.00
2018-02-04T20:35:54.241Z,76.00
2018-02-04T20:38:21.815Z,76.20
2018-02-04T20:40:52.073Z,76.40
2018-02-04T20:43:20.466Z,76.20
2018-02-04T20:45:48.062Z,76.10
2018-02-04T20:48:15.618Z,75.40
2018-02-04T20:50:43.202Z,75.60
2018-02-04T20:53:10.778Z,76.20
2018-02-04T20:55:38.385Z,76.70
2018-02-04T20:58:05.982Z,77.30
2018-02-04T21:00:33.713Z,77.40
2018-02-04T21:03:01.755Z,77.40
2018-02-04T21:05:30.842Z,77.40
2018-02-04T21:07:58.386Z,77.40
2018-02-04T21:10:26.952Z,78.60
2018-02-04T21:12:55.000Z,78.40
2018-02-04T21:15:23.030Z,78.20
2018-02-04T21:17:50.575Z,78.20
2018-02-04T21:20:18.173Z,78.80
2018-02-04T21:22:46.537Z,80.60
2018-02-04T21:25:15.059Z,80.10
2018-02-04T21:27:42.673Z,80.10
2018-02-04T21:30:11.122Z,79.70
2018-02-04T21:32:38.681Z,79.60
2018-02-04T21:35:06.320Z,79.10
2018-02-04T21:37:33.914Z,78.90
2018-02-04T21:40:01.498Z,79.30
2018-02-04T21:42:29.062Z,78.50
2018-02-04T21:44:56.649Z,78.80
2018-02-04T21:47:24.230Z,77.50
2018-02-04T21:49:51.809Z,77.00
2018-02-04T21:52:19.497Z,76.50
2018-02-04T21:54:47.086Z,76.10
2018-02-04T21:57:15.449Z,75.50
2018-02-04T21:59:43.009Z,75.50
2018-02-04T22:02:11.382Z,75.80
2018-02-04T22:04:38.948Z,75.60
2018-02-04T22:07:06.554Z,76.00
2018-02-04T22:09:34.267Z,75.10
2018-02-04T22:12:01.853Z,75.30
2018-02-04T22:14:30.181Z,74.30
2018-02-04T22:16:57.784Z,74.20
2018-02-04T22:19:25.534Z,75.10
2018-02-04T22:21:53.112Z,73.90
2018-02-04T22:24:21.461Z,73.20
2018-02-04T22:26:49.181Z,73.10
2018-02-04T22:29:16.860Z,72.90
2018-02-04T22:31:44.434Z,72.70
2018-02-04T22:34:12.034Z,71.70
2018-02-04T22:36:40.372Z,72.50
2018-02-04T22:39:07.933Z,72.50
2018-02-04T22:41:35.513Z,71.70
2018-02-04T22:44:03.072Z,72.30
2018-02-04T22:46:30.661Z,71.70
2018-02-04T22:48:58.514Z,71.10
2018-02-04T22:51:26.082Z,71.30
2018-02-04T22:53:53.694Z,70.10
2018-02-04T22:56:21.258Z,70.10
2018-02-04T22:58:48.817Z,70.00
2018-02-04T23:01:16.388Z,69.70
2018-02-04T23:03:43.946Z,69.60
2018-02-04T23:06:11.653Z,69.70
2018-02-04T23:08:39.994Z,69.90
2018-02-04T23:11:07.542Z,69.90
2018-02-04T23:13:35.121Z,70.60
2018-02-04T23:16:02.697Z,70.00
2018-02-04T23:18:30.246Z,70.20
2018-02-04T23:20:57.817Z,69.80
2018-02-04T23:23:25.439Z,70.30
2018-02-04T23:25:53.021Z,70.10
2018-02-04T23:28:20.623Z,70.10
2018-02-04T23:30:48.944Z,70.30
2018-02-04T23:33:16.541Z,70.20
2018-02-04T23:35:44.105Z,69.80
2018-02-04T23:38:11.656Z,69.70
2018-02-04T23:40:39.293Z,70.20
2018-02-04T23:43:06.860Z,70.90
2018-02-04T23:45:34.590Z,70.90
2018-02-04T23:48:02.210Z,70.80
2018-02-04T23:50:29.913Z,70.20
2018-02-04T23:52:57.474Z,70.50
2018-02-04T23:55:25.072Z,71.20
2018-02-04T23:57:53.404Z,70.70
